sensor_id;sensor_type;location;lat;lon;timestamp;temperature;humidity
32877;DHT22;19226;51.600;8.034;2024-03-07T00:00:30;7.50;99.90
32877;DHT22;19226;51.600;8.034;2024-03-07T00:03:14;7.40;99.90
32877;DHT22;19226;51.600;8.034;2024-03-07T00:06:01;7.40;99.90
32877;DHT22;19226;51.600;8.034;2024-03-07T00:08:46;7.30;99.90
32877;DHT22;19226;51.600;8.034;2024-03-07T00:11:30;7.30;99.90
32877;DHT22;19226;51.600;8.034;2024-03-07T00:14:14;7.30;99.90
32877;DHT22;19226;51.600;8.034;2024-03-07T00:16:59;7.30;99.90
32877;DHT22;19226;51.600;8.034;2024-03-07T00:19:44;7.20;99.90
32877;DHT22;19226;51.600;8.034;2024-03-07T00:22:28;7.20;99.90
32877;DHT22;19226;51.600;8.034;2024-03-07T00:25:14;7.10;99.90
32877;DHT22;19226;51.600;8.034;2024-03-07T00:28:03;7.10;99.90
32877;DHT22;19226;51.600;8.034;2024-03-07T00:30:48;7.10;99.90
32877;DHT22;19226;51.600;8.034;2024-03-07T00:33:33;7.10;99.90
32877;DHT22;19226;51.600;8.034;2024-03-07T00:36:18;7.10;99.90
32877;DHT22;19226;51.600;8.034;2024-03-07T00:39:02;7.10;99.90
32877;DHT22;19226;51.600;8.034;2024-03-07T00:41:47;7.00;99.90
32877;DHT22;19226;51.600;8.034;2024-03-07T00:44:31;7.00;99.90
32877;DHT22;19226;51.600;8.034;2024-03-07T00:47:16;7.00;99.90
32877;DHT22;19226;51.600;8.034;2024-03-07T00:50:03;6.90;99.90
32877;DHT22;19226;51.600;8.034;2024-03-07T00:52:48;6.90;99.90
32877;DHT22;19226;51.600;8.034;2024-03-07T00:55:33;6.80;99.90
32877;DHT22;19226;51.600;8.034;2024-03-07T00:58:17;6.80;99.90
32877;DHT22;19226;51.600;8.034;2024-03-07T01:01:02;6.80;99.90
32877;DHT22;19226;51.600;8.034;2024-03-07T01:03:47;6.80;99.90
32877;DHT22;19226;51.600;8.034;2024-03-07T01:06:32;6.70;99.90
32877;DHT22;19226;51.600;8.034;2024-03-07T01:09:16;6.70;99.90
32877;DHT22;19226;51.600;8.034;2024-03-07T01:12:03;6.70;99.90
32877;DHT22;19226;51.600;8.034;2024-03-07T01:14:50;6.60;99.90
32877;DHT22;19226;51.600;8.034;2024-03-07T01:17:35;6.50;99.90
32877;DHT22;19226;51.600;8.034;2024-03-07T01:20:21;6.50;99.90
32877;DHT22;19226;51.600;8.034;2024-03-07T01:23:06;6.50;99.90
32877;DHT22;19226;51.600;8.034;2024-03-07T01:25:52;6.40;99.90
32877;DHT22;19226;51.600;8.034;2024-03-07T01:28:36;6.40;99.90
32877;DHT22;19226;51.600;8.034;2024-03-07T01:31:22;6.40;99.90
32877;DHT22;19226;51.600;8.034;2024-03-07T01:34:07;6.40;99.90
32877;DHT22;19226;51.600;8.034;2024-03-07T01:36:51;6.40;99.90
32877;DHT22;19226;51.600;8.034;2024-03-07T01:39:36;6.30;99.90
32877;DHT22;19226;51.600;8.034;2024-03-07T01:42:21;6.30;99.90
32877;DHT22;19226;51.600;8.034;2024-03-07T01:45:06;6.20;99.90
32877;DHT22;19226;51.600;8.034;2024-03-07T01:47:53;6.20;99.90
32877;DHT22;19226;51.600;8.034;2024-03-07T01:50:37;6.20;99.90
32877;DHT22;19226;51.600;8.034;2024-03-07T01:53:25;6.10;99.90
32877;DHT22;19226;51.600;8.034;2024-03-07T01:56:10;6.10;99.90
32877;DHT22;19226;51.600;8.034;2024-03-07T01:58:55;6.10;99.90
32877;DHT22;19226;51.600;8.034;2024-03-07T02:01:40;6.00;99.90
32877;DHT22;19226;51.600;8.034;2024-03-07T02:04:25;6.00;99.90
32877;DHT22;19226;51.600;8.034;2024-03-07T02:07:09;5.90;99.90
32877;DHT22;19226;51.600;8.034;2024-03-07T02:10:00;5.90;99.90
32877;DHT22;19226;51.600;8.034;2024-03-07T02:12:45;5.90;99.90
32877;DHT22;19226;51.600;8.034;2024-03-07T02:15:29;5.80;99.90
32877;DHT22;19226;51.600;8.034;2024-03-07T02:18:14;5.70;99.90
32877;DHT22;19226;51.600;8.034;2024-03-07T02:20:58;5.70;99.90
32877;DHT22;19226;51.600;8.034;2024-03-07T02:23:44;5.70;99.90
32877;DHT22;19226;51.600;8.034;2024-03-07T02:26:28;5.60;99.90
32877;DHT22;19226;51.600;8.034;2024-03-07T02:29:13;5.60;99.90
32877;DHT22;19226;51.600;8.034;2024-03-07T02:31:57;5.50;99.90
32877;DHT22;19226;51.600;8.034;2024-03-07T02:34:42;5.50;99.90
32877;DHT22;19226;51.600;8.034;2024-03-07T02:37:27;5.50;99.90
32877;DHT22;19226;51.600;8.034;2024-03-07T02:40:13;5.50;99.90
32877;DHT22;19226;51.600;8.034;2024-03-07T02:42:58;5.50;99.90
32877;DHT22;19226;51.600;8.034;2024-03-07T02:45:42;5.50;99.90
32877;DHT22;19226;51.600;8.034;2024-03-07T02:48:26;5.40;99.90
32877;DHT22;19226;51.600;8.034;2024-03-07T02:51:11;5.40;99.90
32877;DHT22;19226;51.600;8.034;2024-03-07T02:53:55;5.30;99.90
32877;DHT22;19226;51.600;8.034;2024-03-07T02:56:40;5.30;99.90
32877;DHT22;19226;51.600;8.034;2024-03-07T02:59:24;5.30;99.90
32877;DHT22;19226;51.600;8.034;2024-03-07T03:02:09;5.20;99.90
32877;DHT22;19226;51.600;8.034;2024-03-07T03:04:54;5.20;99.90
32877;DHT22;19226;51.600;8.034;2024-03-07T03:07:39;5.10;99.90
32877;DHT22;19226;51.600;8.034;2024-03-07T03:10:25;5.10;99.90
32877;DHT22;19226;51.600;8.034;2024-03-07T03:13:15;5.10;99.90
32877;DHT22;19226;51.600;8.034;2024-03-07T03:16:00;5.00;99.90
32877;DHT22;19226;51.600;8.034;2024-03-07T03:18:44;5.00;99.90
32877;DHT22;19226;51.600;8.034;2024-03-07T03:21:29;5.00;99.90
32877;DHT22;19226;51.600;8.034;2024-03-07T03:24:13;4.90;99.90
32877;DHT22;19226;51.600;8.034;2024-03-07T03:26:59;5.00;99.90
32877;DHT22;19226;51.600;8.034;2024-03-07T03:29:44;4.90;99.90
32877;DHT22;19226;51.600;8.034;2024-03-07T03:32:29;4.90;99.90
32877;DHT22;19226;51.600;8.034;2024-03-07T03:35:14;4.80;99.90
32877;DHT22;19226;51.600;8.034;2024-03-07T03:38:00;4.70;99.90
32877;DHT22;19226;51.600;8.034;2024-03-07T03:40:45;4.70;99.90
32877;DHT22;19226;51.600;8.034;2024-03-07T03:43:29;4.70;99.90
32877;DHT22;19226;51.600;8.034;2024-03-07T03:46:14;4.70;99.90
32877;DHT22;19226;51.600;8.034;2024-03-07T03:48:58;4.60;99.90
32877;DHT22;19226;51.600;8.034;2024-03-07T03:51:43;4.60;99.90
32877;DHT22;19226;51.600;8.034;2024-03-07T03:54:27;4.50;99.90
32877;DHT22;19226;51.600;8.034;2024-03-07T03:57:12;4.50;99.90
32877;DHT22;19226;51.600;8.034;2024-03-07T03:59:57;4.50;99.90
32877;DHT22;19226;51.600;8.034;2024-03-07T04:02:43;4.40;99.90
32877;DHT22;19226;51.600;8.034;2024-03-07T04:05:28;4.40;99.90
32877;DHT22;19226;51.600;8.034;2024-03-07T04:08:12;4.40;99.90
32877;DHT22;19226;51.600;8.034;2024-03-07T04:10:57;4.40;99.90
32877;DHT22;19226;51.600;8.034;2024-03-07T04:13:44;4.30;99.90
32877;DHT22;19226;51.600;8.034;2024-03-07T04:16:29;4.30;99.90
32877;DHT22;19226;51.600;8.034;2024-03-07T04:19:13;4.30;99.90
32877;DHT22;19226;51.600;8.034;2024-03-07T04:21:58;4.30;99.90
32877;DHT22;19226;51.600;8.034;2024-03-07T04:24:42;4.30;99.90
32877;DHT22;19226;51.600;8.034;2024-03-07T04:27:27;4.30;99.90
32877;DHT22;19226;51.600;8.034;2024-03-07T04:30:12;4.30;99.90
32877;DHT22;19226;51.600;8.034;2024-03-07T04:33:00;4.30;99.90
32877;DHT22;19226;51.600;8.034;2024-03-07T04:35:44;4.30;99.90
32877;DHT22;19226;51.600;8.034;2024-03-07T04:38:29;4.30;99.90
32877;DHT22;19226;51.600;8.034;2024-03-07T04:41:14;4.20;99.90
32877;DHT22;19226;51.600;8.034;2024-03-07T04:43:59;4.20;99.90
32877;DHT22;19226;51.600;8.034;2024-03-07T04:46:44;4.20;99.90
32877;DHT22;19226;51.600;8.034;2024-03-07T04:49:30;4.20;99.90
32877;DHT22;19226;51.600;8.034;2024-03-07T04:52:15;4.10;99.90
32877;DHT22;19226;51.600;8.034;2024-03-07T04:54:59;4.10;99.90
32877;DHT22;19226;51.600;8.034;2024-03-07T04:57:44;4.00;99.90
32877;DHT22;19226;51.600;8.034;2024-03-07T05:00:28;4.00;99.90
32877;DHT22;19226;51.600;8.034;2024-03-07T05:03:15;4.00;99.90
32877;DHT22;19226;51.600;8.034;2024-03-07T05:05:59;3.90;99.90
32877;DHT22;19226;51.600;8.034;2024-03-07T05:08:44;3.90;99.90
32877;DHT22;19226;51.600;8.034;2024-03-07T05:11:32;3.80;99.90
32877;DHT22;19226;51.600;8.034;2024-03-07T05:14:16;3.80;99.90
32877;DHT22;19226;51.600;8.034;2024-03-07T05:17:01;3.80;99.90
32877;DHT22;19226;51.600;8.034;2024-03-07T05:19:54;3.80;99.90
32877;DHT22;19226;51.600;8.034;2024-03-07T05:22:39;3.80;99.90
32877;DHT22;19226;51.600;8.034;2024-03-07T05:25:24;3.80;99.90
32877;DHT22;19226;51.600;8.034;2024-03-07T05:28:09;3.70;99.90
32877;DHT22;19226;51.600;8.034;2024-03-07T05:30:53;3.70;99.90
32877;DHT22;19226;51.600;8.034;2024-03-07T05:33:39;3.70;99.90
32877;DHT22;19226;51.600;8.034;2024-03-07T05:36:24;3.70;99.90
32877;DHT22;19226;51.600;8.034;2024-03-07T05:39:09;3.70;99.90
32877;DHT22;19226;51.600;8.034;2024-03-07T05:41:55;3.60;99.90
32877;DHT22;19226;51.600;8.034;2024-03-07T05:44:42;3.60;99.90
32877;DHT22;19226;51.600;8.034;2024-03-07T05:47:26;3.60;99.90
32877;DHT22;19226;51.600;8.034;2024-03-07T05:50:11;3.60;99.90
32877;DHT22;19226;51.600;8.034;2024-03-07T05:52:57;3.60;99.90
32877;DHT22;19226;51.600;8.034;2024-03-07T05:55:42;3.60;99.90
32877;DHT22;19226;51.600;8.034;2024-03-07T05:58:26;3.60;99.90
32877;DHT22;19226;51.600;8.034;2024-03-07T06:01:11;3.50;99.90
32877;DHT22;19226;51.600;8.034;2024-03-07T06:03:55;3.50;99.90
32877;DHT22;19226;51.600;8.034;2024-03-07T06:06:40;3.50;99.90
32877;DHT22;19226;51.600;8.034;2024-03-07T06:09:25;3.50;99.90
32877;DHT22;19226;51.600;8.034;2024-03-07T06:12:11;3.50;99.90
32877;DHT22;19226;51.600;8.034;2024-03-07T06:14:56;3.40;99.90
32877;DHT22;19226;51.600;8.034;2024-03-07T06:17:40;3.40;99.90
32877;DHT22;19226;51.600;8.034;2024-03-07T06:20:25;3.40;99.90
32877;DHT22;19226;51.600;8.034;2024-03-07T06:23:10;3.40;99.90
32877;DHT22;19226;51.600;8.034;2024-03-07T06:26:00;3.40;99.90
32877;DHT22;19226;51.600;8.034;2024-03-07T06:28:45;3.40;99.90
32877;DHT22;19226;51.600;8.034;2024-03-07T06:31:29;3.50;99.90
32877;DHT22;19226;51.600;8.034;2024-03-07T06:34:14;3.50;99.90
32877;DHT22;19226;51.600;8.034;2024-03-07T06:36:59;3.50;99.90
32877;DHT22;19226;51.600;8.034;2024-03-07T06:39:43;3.50;99.90
32877;DHT22;19226;51.600;8.034;2024-03-07T06:42:28;3.50;99.90
32877;DHT22;19226;51.600;8.034;2024-03-07T06:45:12;3.50;99.90
32877;DHT22;19226;51.600;8.034;2024-03-07T06:47:57;3.60;99.90
32877;DHT22;19226;51.600;8.034;2024-03-07T06:50:41;3.60;99.90
32877;DHT22;19226;51.600;8.034;2024-03-07T06:53:28;3.60;99.90
32877;DHT22;19226;51.600;8.034;2024-03-07T06:56:14;3.60;99.90
32877;DHT22;19226;51.600;8.034;2024-03-07T06:58:59;3.70;99.90
32877;DHT22;19226;51.600;8.034;2024-03-07T07:01:46;3.60;99.90
32877;DHT22;19226;51.600;8.034;2024-03-07T07:04:31;3.50;99.90
32877;DHT22;19226;51.600;8.034;2024-03-07T07:07:25;3.50;99.90
32877;DHT22;19226;51.600;8.034;2024-03-07T07:10:11;3.50;99.90
32877;DHT22;19226;51.600;8.034;2024-03-07T07:13:09;3.50;99.90
32877;DHT22;19226;51.600;8.034;2024-03-07T07:15:54;3.50;99.90
32877;DHT22;19226;51.600;8.034;2024-03-07T07:18:39;3.50;99.90
32877;DHT22;19226;51.600;8.034;2024-03-07T07:21:23;3.60;99.90
32877;DHT22;19226;51.600;8.034;2024-03-07T07:24:08;3.60;99.90
32877;DHT22;19226;51.600;8.034;2024-03-07T07:26:53;3.60;99.90
32877;DHT22;19226;51.600;8.034;2024-03-07T07:29:37;3.70;99.90
32877;DHT22;19226;51.600;8.034;2024-03-07T07:32:21;3.70;99.90
32877;DHT22;19226;51.600;8.034;2024-03-07T07:35:06;3.80;99.90
32877;DHT22;19226;51.600;8.034;2024-03-07T07:37:57;3.80;99.90
32877;DHT22;19226;51.600;8.034;2024-03-07T07:40:42;3.80;99.90
32877;DHT22;19226;51.600;8.034;2024-03-07T07:43:27;3.90;99.90
32877;DHT22;19226;51.600;8.034;2024-03-07T07:46:12;3.90;99.90
32877;DHT22;19226;51.600;8.034;2024-03-07T07:48:57;3.90;99.90
32877;DHT22;19226;51.600;8.034;2024-03-07T07:51:41;3.90;99.90
32877;DHT22;19226;51.600;8.034;2024-03-07T07:54:26;4.00;99.90
32877;DHT22;19226;51.600;8.034;2024-03-07T07:57:11;4.00;99.90
32877;DHT22;19226;51.600;8.034;2024-03-07T07:59:56;4.00;99.90
32877;DHT22;19226;51.600;8.034;2024-03-07T08:02:40;4.10;99.90
32877;DHT22;19226;51.600;8.034;2024-03-07T08:05:26;4.20;99.90
32877;DHT22;19226;51.600;8.034;2024-03-07T08:08:11;4.20;99.90
32877;DHT22;19226;51.600;8.034;2024-03-07T08:10:57;4.20;99.90
32877;DHT22;19226;51.600;8.034;2024-03-07T08:13:43;4.30;99.90
32877;DHT22;19226;51.600;8.034;2024-03-07T08:16:28;4.30;99.90
32877;DHT22;19226;51.600;8.034;2024-03-07T08:19:12;4.30;99.90
32877;DHT22;19226;51.600;8.034;2024-03-07T08:21:58;4.40;99.90
32877;DHT22;19226;51.600;8.034;2024-03-07T08:24:44;4.50;99.90
32877;DHT22;19226;51.600;8.034;2024-03-07T08:27:28;4.50;99.90
32877;DHT22;19226;51.600;8.034;2024-03-07T08:30:14;4.50;99.90
32877;DHT22;19226;51.600;8.034;2024-03-07T08:33:01;4.50;99.90
32877;DHT22;19226;51.600;8.034;2024-03-07T08:35:49;4.60;99.90
32877;DHT22;19226;51.600;8.034;2024-03-07T08:38:34;4.70;99.90
32877;DHT22;19226;51.600;8.034;2024-03-07T08:41:21;4.70;99.90
32877;DHT22;19226;51.600;8.034;2024-03-07T08:44:06;4.70;99.90
32877;DHT22;19226;51.600;8.034;2024-03-07T08:46:50;4.70;99.90
32877;DHT22;19226;51.600;8.034;2024-03-07T08:49:35;4.80;99.90
32877;DHT22;19226;51.600;8.034;2024-03-07T08:52:19;4.80;99.90
32877;DHT22;19226;51.600;8.034;2024-03-07T08:55:04;4.90;99.90
32877;DHT22;19226;51.600;8.034;2024-03-07T08:57:49;5.00;99.90
32877;DHT22;19226;51.600;8.034;2024-03-07T09:00:34;5.00;99.90
32877;DHT22;19226;51.600;8.034;2024-03-07T09:03:19;5.10;99.90
32877;DHT22;19226;51.600;8.034;2024-03-07T09:06:06;5.10;99.90
32877;DHT22;19226;51.600;8.034;2024-03-07T09:08:51;5.20;99.90
32877;DHT22;19226;51.600;8.034;2024-03-07T09:11:35;5.20;99.90
32877;DHT22;19226;51.600;8.034;2024-03-07T09:14:21;5.30;99.90
32877;DHT22;19226;51.600;8.034;2024-03-07T09:17:05;5.40;99.90
32877;DHT22;19226;51.600;8.034;2024-03-07T09:19:50;5.40;99.90
32877;DHT22;19226;51.600;8.034;2024-03-07T09:22:35;5.50;99.90
32877;DHT22;19226;51.600;8.034;2024-03-07T09:25:19;5.50;99.90
32877;DHT22;19226;51.600;8.034;2024-03-07T09:28:04;5.60;99.90
32877;DHT22;19226;51.600;8.034;2024-03-07T09:30:50;5.60;99.90
32877;DHT22;19226;51.600;8.034;2024-03-07T09:33:35;5.60;99.90
32877;DHT22;19226;51.600;8.034;2024-03-07T09:36:22;5.70;99.90
32877;DHT22;19226;51.600;8.034;2024-03-07T09:39:07;5.70;99.90
32877;DHT22;19226;51.600;8.034;2024-03-07T09:41:53;5.80;99.90
32877;DHT22;19226;51.600;8.034;2024-03-07T09:44:40;5.90;99.90
32877;DHT22;19226;51.600;8.034;2024-03-07T09:47:26;5.90;99.90
32877;DHT22;19226;51.600;8.034;2024-03-07T09:50:11;6.10;99.90
32877;DHT22;19226;51.600;8.034;2024-03-07T09:52:56;6.20;99.90
32877;DHT22;19226;51.600;8.034;2024-03-07T09:55:42;6.20;99.90
32877;DHT22;19226;51.600;8.034;2024-03-07T09:58:28;6.30;99.90
32877;DHT22;19226;51.600;8.034;2024-03-07T10:01:19;6.30;99.90
32877;DHT22;19226;51.600;8.034;2024-03-07T10:04:06;6.30;99.90
32877;DHT22;19226;51.600;8.034;2024-03-07T10:06:55;6.40;99.90
32877;DHT22;19226;51.600;8.034;2024-03-07T10:09:41;6.40;99.90
32877;DHT22;19226;51.600;8.034;2024-03-07T10:12:26;6.50;99.90
32877;DHT22;19226;51.600;8.034;2024-03-07T10:15:10;6.50;99.90
32877;DHT22;19226;51.600;8.034;2024-03-07T10:17:58;6.60;99.90
32877;DHT22;19226;51.600;8.034;2024-03-07T10:20:43;6.60;99.90
32877;DHT22;19226;51.600;8.034;2024-03-07T10:23:29;6.70;99.90
32877;DHT22;19226;51.600;8.034;2024-03-07T10:26:13;6.70;99.90
32877;DHT22;19226;51.600;8.034;2024-03-07T10:29:00;6.80;99.90
32877;DHT22;19226;51.600;8.034;2024-03-07T10:31:44;7.00;99.90
32877;DHT22;19226;51.600;8.034;2024-03-07T10:34:33;7.10;99.90
32877;DHT22;19226;51.600;8.034;2024-03-07T10:37:19;7.10;99.90
32877;DHT22;19226;51.600;8.034;2024-03-07T10:40:06;7.20;99.90
32877;DHT22;19226;51.600;8.034;2024-03-07T10:42:59;7.30;99.90
32877;DHT22;19226;51.600;8.034;2024-03-07T10:45:48;7.40;99.90
32877;DHT22;19226;51.600;8.034;2024-03-07T10:48:38;7.40;99.90
32877;DHT22;19226;51.600;8.034;2024-03-07T10:51:37;7.40;99.90
32877;DHT22;19226;51.600;8.034;2024-03-07T10:58:02;7.60;99.90
32877;DHT22;19226;51.600;8.034;2024-03-07T11:00:47;7.60;99.90
32877;DHT22;19226;51.600;8.034;2024-03-07T11:03:33;7.60;99.90
32877;DHT22;19226;51.600;8.034;2024-03-07T11:06:23;7.70;99.90
32877;DHT22;19226;51.600;8.034;2024-03-07T11:09:08;7.80;99.90
32877;DHT22;19226;51.600;8.034;2024-03-07T11:11:56;7.90;99.90
32877;DHT22;19226;51.600;8.034;2024-03-07T11:14:43;8.00;99.90
32877;DHT22;19226;51.600;8.034;2024-03-07T11:17:28;8.10;99.90
32877;DHT22;19226;51.600;8.034;2024-03-07T11:20:25;8.10;99.90
32877;DHT22;19226;51.600;8.034;2024-03-07T11:23:29;8.10;99.90
32877;DHT22;19226;51.600;8.034;2024-03-07T11:26:14;8.20;99.90
32877;DHT22;19226;51.600;8.034;2024-03-07T11:28:59;8.20;99.90
32877;DHT22;19226;51.600;8.034;2024-03-07T11:31:45;8.30;99.90
32877;DHT22;19226;51.600;8.034;2024-03-07T11:34:30;8.20;99.90
32877;DHT22;19226;51.600;8.034;2024-03-07T11:37:37;8.30;99.90
32877;DHT22;19226;51.600;8.034;2024-03-07T11:43:11;8.30;99.90
32877;DHT22;19226;51.600;8.034;2024-03-07T11:45:57;8.30;99.90
32877;DHT22;19226;51.600;8.034;2024-03-07T11:48:42;8.30;99.90
32877;DHT22;19226;51.600;8.034;2024-03-07T11:51:27;8.30;99.90
32877;DHT22;19226;51.600;8.034;2024-03-07T11:54:13;8.30;99.90
32877;DHT22;19226;51.600;8.034;2024-03-07T11:56:59;8.30;99.90
32877;DHT22;19226;51.600;8.034;2024-03-07T11:59:43;8.30;99.90
32877;DHT22;19226;51.600;8.034;2024-03-07T12:02:29;8.30;99.90
32877;DHT22;19226;51.600;8.034;2024-03-07T12:05:14;8.40;99.90
32877;DHT22;19226;51.600;8.034;2024-03-07T12:08:01;8.30;99.90
32877;DHT22;19226;51.600;8.034;2024-03-07T12:10:45;8.40;99.90
32877;DHT22;19226;51.600;8.034;2024-03-07T12:13:30;8.40;99.90
32877;DHT22;19226;51.600;8.034;2024-03-07T12:16:15;8.40;99.90
32877;DHT22;19226;51.600;8.034;2024-03-07T12:19:00;8.50;99.90
32877;DHT22;19226;51.600;8.034;2024-03-07T12:21:49;8.50;99.90
32877;DHT22;19226;51.600;8.034;2024-03-07T12:24:33;8.60;99.90
32877;DHT22;19226;51.600;8.034;2024-03-07T12:27:18;8.60;99.90
32877;DHT22;19226;51.600;8.034;2024-03-07T12:30:15;8.70;99.90
32877;DHT22;19226;51.600;8.034;2024-03-07T12:33:04;8.80;99.90
32877;DHT22;19226;51.600;8.034;2024-03-07T12:35:49;8.90;99.90
32877;DHT22;19226;51.600;8.034;2024-03-07T12:38:36;9.00;99.90
32877;DHT22;19226;51.600;8.034;2024-03-07T12:41:22;9.00;99.90
32877;DHT22;19226;51.600;8.034;2024-03-07T12:44:06;9.10;99.90
32877;DHT22;19226;51.600;8.034;2024-03-07T12:46:56;9.20;99.90
32877;DHT22;19226;51.600;8.034;2024-03-07T12:49:45;9.40;99.90
32877;DHT22;19226;51.600;8.034;2024-03-07T12:52:29;9.50;99.90
32877;DHT22;19226;51.600;8.034;2024-03-07T12:55:14;9.60;99.90
32877;DHT22;19226;51.600;8.034;2024-03-07T12:58:02;9.80;99.90
32877;DHT22;19226;51.600;8.034;2024-03-07T13:00:49;9.90;99.90
32877;DHT22;19226;51.600;8.034;2024-03-07T13:03:33;10.00;99.90
32877;DHT22;19226;51.600;8.034;2024-03-07T13:06:19;10.10;99.90
32877;DHT22;19226;51.600;8.034;2024-03-07T13:09:10;10.30;99.90
32877;DHT22;19226;51.600;8.034;2024-03-07T13:11:55;10.50;99.90
32877;DHT22;19226;51.600;8.034;2024-03-07T13:14:39;10.50;99.90
32877;DHT22;19226;51.600;8.034;2024-03-07T13:17:24;10.50;99.90
32877;DHT22;19226;51.600;8.034;2024-03-07T13:20:12;10.50;99.90
32877;DHT22;19226;51.600;8.034;2024-03-07T13:22:58;10.50;99.90
32877;DHT22;19226;51.600;8.034;2024-03-07T13:25:45;10.40;99.90
32877;DHT22;19226;51.600;8.034;2024-03-07T13:28:29;10.50;99.90
32877;DHT22;19226;51.600;8.034;2024-03-07T13:31:14;10.40;99.90
32877;DHT22;19226;51.600;8.034;2024-03-07T13:34:01;10.40;99.90
32877;DHT22;19226;51.600;8.034;2024-03-07T13:36:47;10.40;99.90
32877;DHT22;19226;51.600;8.034;2024-03-07T13:39:31;10.40;99.90
32877;DHT22;19226;51.600;8.034;2024-03-07T13:42:16;10.30;99.90
32877;DHT22;19226;51.600;8.034;2024-03-07T13:45:01;10.30;99.90
32877;DHT22;19226;51.600;8.034;2024-03-07T13:47:45;10.30;99.90
32877;DHT22;19226;51.600;8.034;2024-03-07T13:50:34;10.20;99.90
32877;DHT22;19226;51.600;8.034;2024-03-07T13:53:20;10.20;99.90
32877;DHT22;19226;51.600;8.034;2024-03-07T14:02:24;10.20;99.90
32877;DHT22;19226;51.600;8.034;2024-03-07T14:05:41;10.20;99.90
32877;DHT22;19226;51.600;8.034;2024-03-07T14:28:14;10.70;99.90
32877;DHT22;19226;51.600;8.034;2024-03-07T14:31:00;10.70;99.90
32877;DHT22;19226;51.600;8.034;2024-03-07T14:34:14;10.70;99.90
32877;DHT22;19226;51.600;8.034;2024-03-07T14:37:23;10.70;99.90
32877;DHT22;19226;51.600;8.034;2024-03-07T14:40:10;10.70;99.90
32877;DHT22;19226;51.600;8.034;2024-03-07T14:42:58;10.60;99.90
32877;DHT22;19226;51.600;8.034;2024-03-07T14:45:46;10.50;99.90
32877;DHT22;19226;51.600;8.034;2024-03-07T14:48:31;10.40;99.90
32877;DHT22;19226;51.600;8.034;2024-03-07T14:51:18;10.30;99.90
32877;DHT22;19226;51.600;8.034;2024-03-07T14:54:03;10.30;99.90
32877;DHT22;19226;51.600;8.034;2024-03-07T14:56:47;10.40;99.90
32877;DHT22;19226;51.600;8.034;2024-03-07T14:59:32;10.40;99.90
32877;DHT22;19226;51.600;8.034;2024-03-07T15:02:17;10.60;99.90
32877;DHT22;19226;51.600;8.034;2024-03-07T15:05:02;10.70;99.90
32877;DHT22;19226;51.600;8.034;2024-03-07T15:07:53;10.80;99.90
32877;DHT22;19226;51.600;8.034;2024-03-07T15:10:57;10.80;99.90
32877;DHT22;19226;51.600;8.034;2024-03-07T15:13:43;10.80;99.90
32877;DHT22;19226;51.600;8.034;2024-03-07T15:16:30;10.70;99.90
32877;DHT22;19226;51.600;8.034;2024-03-07T15:19:19;10.70;99.90
32877;DHT22;19226;51.600;8.034;2024-03-07T15:22:04;10.60;99.90
32877;DHT22;19226;51.600;8.034;2024-03-07T15:24:49;10.70;99.90
32877;DHT22;19226;51.600;8.034;2024-03-07T15:27:33;10.70;99.90
32877;DHT22;19226;51.600;8.034;2024-03-07T15:30:24;10.70;99.90
32877;DHT22;19226;51.600;8.034;2024-03-07T15:33:19;10.80;99.90
32877;DHT22;19226;51.600;8.034;2024-03-07T15:36:06;10.80;99.90
32877;DHT22;19226;51.600;8.034;2024-03-07T15:38:51;10.80;99.90
32877;DHT22;19226;51.600;8.034;2024-03-07T15:41:35;10.90;99.90
32877;DHT22;19226;51.600;8.034;2024-03-07T15:44:20;10.90;99.90
32877;DHT22;19226;51.600;8.034;2024-03-07T15:47:04;11.00;99.90
32877;DHT22;19226;51.600;8.034;2024-03-07T15:49:51;11.00;99.90
32877;DHT22;19226;51.600;8.034;2024-03-07T15:52:41;10.90;99.90
32877;DHT22;19226;51.600;8.034;2024-03-07T15:55:26;10.90;99.90
32877;DHT22;19226;51.600;8.034;2024-03-07T15:58:12;10.80;99.90
32877;DHT22;19226;51.600;8.034;2024-03-07T16:01:02;10.70;99.90
32877;DHT22;19226;51.600;8.034;2024-03-07T16:03:47;10.60;99.90
32877;DHT22;19226;51.600;8.034;2024-03-07T16:06:31;10.40;99.90
32877;DHT22;19226;51.600;8.034;2024-03-07T16:09:16;10.40;99.90
32877;DHT22;19226;51.600;8.034;2024-03-07T16:12:07;10.50;99.90
32877;DHT22;19226;51.600;8.034;2024-03-07T16:14:52;10.30;99.90
32877;DHT22;19226;51.600;8.034;2024-03-07T16:17:38;10.20;99.90
32877;DHT22;19226;51.600;8.034;2024-03-07T16:20:23;10.20;99.90
32877;DHT22;19226;51.600;8.034;2024-03-07T16:23:08;10.10;99.90
32877;DHT22;19226;51.600;8.034;2024-03-07T16:25:52;10.10;99.90
32877;DHT22;19226;51.600;8.034;2024-03-07T16:28:38;10.10;99.90
32877;DHT22;19226;51.600;8.034;2024-03-07T16:31:22;10.00;99.90
32877;DHT22;19226;51.600;8.034;2024-03-07T16:34:07;9.90;99.90
32877;DHT22;19226;51.600;8.034;2024-03-07T16:36:51;9.90;99.90
32877;DHT22;19226;51.600;8.034;2024-03-07T16:39:40;9.90;99.90
32877;DHT22;19226;51.600;8.034;2024-03-07T16:42:27;9.80;99.90
32877;DHT22;19226;51.600;8.034;2024-03-07T16:45:13;9.80;99.90
32877;DHT22;19226;51.600;8.034;2024-03-07T16:47:59;9.60;99.90
32877;DHT22;19226;51.600;8.034;2024-03-07T16:50:44;9.60;99.90
32877;DHT22;19226;51.600;8.034;2024-03-07T16:53:28;9.60;99.90
32877;DHT22;19226;51.600;8.034;2024-03-07T16:56:17;9.50;99.90
32877;DHT22;19226;51.600;8.034;2024-03-07T16:59:02;9.50;99.90
32877;DHT22;19226;51.600;8.034;2024-03-07T17:01:49;9.40;99.90
32877;DHT22;19226;51.600;8.034;2024-03-07T17:04:36;9.40;99.90
32877;DHT22;19226;51.600;8.034;2024-03-07T17:07:20;9.30;99.90
32877;DHT22;19226;51.600;8.034;2024-03-07T17:10:08;9.20;99.90
32877;DHT22;19226;51.600;8.034;2024-03-07T17:12:58;9.20;99.90
32877;DHT22;19226;51.600;8.034;2024-03-07T17:15:43;9.10;99.90
32877;DHT22;19226;51.600;8.034;2024-03-07T17:18:27;9.00;99.90
32877;DHT22;19226;51.600;8.034;2024-03-07T17:21:12;9.00;99.90
32877;DHT22;19226;51.600;8.034;2024-03-07T17:23:58;8.90;99.90
32877;DHT22;19226;51.600;8.034;2024-03-07T17:26:44;8.90;99.90
32877;DHT22;19226;51.600;8.034;2024-03-07T17:29:29;8.80;99.90
32877;DHT22;19226;51.600;8.034;2024-03-07T17:32:14;8.80;99.90
32877;DHT22;19226;51.600;8.034;2024-03-07T17:35:01;8.70;99.90
32877;DHT22;19226;51.600;8.034;2024-03-07T17:37:50;8.70;99.90
32877;DHT22;19226;51.600;8.034;2024-03-07T17:40:35;8.60;99.90
32877;DHT22;19226;51.600;8.034;2024-03-07T17:43:20;8.60;99.90
32877;DHT22;19226;51.600;8.034;2024-03-07T17:46:04;8.50;99.90
32877;DHT22;19226;51.600;8.034;2024-03-07T17:48:51;8.50;99.90
32877;DHT22;19226;51.600;8.034;2024-03-07T17:51:35;8.50;99.90
32877;DHT22;19226;51.600;8.034;2024-03-07T17:54:20;8.50;99.90
32877;DHT22;19226;51.600;8.034;2024-03-07T17:57:07;8.40;99.90
32877;DHT22;19226;51.600;8.034;2024-03-07T17:59:51;8.40;99.90
32877;DHT22;19226;51.600;8.034;2024-03-07T18:02:36;8.40;99.90
32877;DHT22;19226;51.600;8.034;2024-03-07T18:05:21;8.30;99.90
32877;DHT22;19226;51.600;8.034;2024-03-07T18:08:08;8.20;99.90
32877;DHT22;19226;51.600;8.034;2024-03-07T18:10:53;8.20;99.90
32877;DHT22;19226;51.600;8.034;2024-03-07T18:13:37;8.10;99.90